Time;durP1;ratioP1;P1;durP2;ratioP2;P2;SDS_P1;SDS_P2;PMS_P1;PMS_P2;Temp;Humidity;BMP_temperature;BMP_pressure;BME280_temperature;BME280_humidity;BME280_pressure;Samples;Min_cycle;Max_cycle;Signal;HPM_P1;HPM_P2
2023/09/18 00:02:20;;;;;;;8.38;5.05;;;17.10;99.90;;;;;;7310797;32;20118;-56
2023/09/18 00:06:23;;;;;;;8.43;4.70;;;17.10;99.90;;;;;;7303671;32;20128;-56
2023/09/18 00:10:26;;;;;;;9.38;4.75;;;17.10;99.90;;;;;;7307904;32;20587;-55
2023/09/18 00:14:28;;;;;;;8.50;4.87;;;17.10;99.90;;;;;;7303117;32;20482;-55
2023/09/18 00:18:30;;;;;;;6.57;4.50;;;17.10;99.90;;;;;;7300089;32;20764;-55
2023/09/18 00:22:31;;;;;;;11.27;5.12;;;17.10;99.90;;;;;;7295034;32;20176;-57
2023/09/18 00:26:34;;;;;;;4.82;4.20;;;17.00;99.90;;;;;;7300731;32;20095;-56
2023/09/18 00:30:38;;;;;;;6.97;4.65;;;17.00;99.90;;;;;;7300752;32;21764;-56
2023/09/18 00:34:39;;;;;;;7.22;4.70;;;16.90;99.90;;;;;;7305832;32;20114;-56
2023/09/18 00:38:41;;;;;;;5.82;4.85;;;16.90;99.90;;;;;;7304736;32;20122;-56
2023/09/18 00:42:43;;;;;;;18.95;4.93;;;16.80;99.90;;;;;;7307645;32;20241;-56
2023/09/18 00:46:44;;;;;;;7.90;4.90;;;16.90;99.90;;;;;;7301652;32;20130;-56
2023/09/18 00:50:48;;;;;;;9.23;5.18;;;16.80;99.90;;;;;;7295391;32;21600;-55
2023/09/18 00:54:50;;;;;;;14.40;4.93;;;16.80;99.90;;;;;;7303288;32;20120;-56
2023/09/18 00:58:52;;;;;;;6.28;5.15;;;16.70;99.90;;;;;;7305507;32;20229;-58
2023/09/18 01:02:54;;;;;;;6.75;5.28;;;16.70;99.90;;;;;;7304952;32;20498;-58
2023/09/18 01:06:57;;;;;;;8.85;5.75;;;16.70;99.90;;;;;;7299501;32;20238;-56
2023/09/18 01:11:32;;;;;;;8.48;5.45;;;16.70;99.90;;;;;;7297365;32;20146;-57
2023/09/18 01:15:42;;;;;;;13.55;5.68;;;16.70;99.90;;;;;;7298724;32;20187;-56
2023/09/18 01:19:46;;;;;;;8.57;4.85;;;16.60;99.90;;;;;;7286856;32;20135;-55
2023/09/18 01:23:49;;;;;;;12.20;5.20;;;16.70;99.90;;;;;;7305825;32;20281;-55
2023/09/18 01:27:51;;;;;;;9.00;4.80;;;16.70;99.90;;;;;;7304310;32;20100;-55
2023/09/18 01:31:54;;;;;;;10.57;5.25;;;16.60;99.90;;;;;;7305535;32;20766;-56
2023/09/18 01:35:57;;;;;;;8.32;4.97;;;16.60;99.90;;;;;;7309270;32;20238;-57
2023/09/18 01:39:59;;;;;;;9.77;5.12;;;16.60;99.90;;;;;;7303720;32;20122;-55
2023/09/18 01:44:02;;;;;;;11.77;6.25;;;16.60;99.90;;;;;;7308125;32;20133;-57
2023/09/18 01:48:05;;;;;;;10.73;5.18;;;16.60;99.90;;;;;;7306603;32;20095;-56
2023/09/18 01:52:09;;;;;;;10.98;5.15;;;16.60;99.90;;;;;;7305798;32;20223;-56
2023/09/18 01:56:10;;;;;;;11.57;5.20;;;16.50;99.90;;;;;;7312217;32;20104;-57
2023/09/18 02:00:13;;;;;;;8.85;5.30;;;16.50;99.90;;;;;;7301521;32;20179;-57
2023/09/18 02:04:17;;;;;;;11.27;5.68;;;16.50;99.90;;;;;;7308179;32;20202;-56
2023/09/18 02:08:38;;;;;;;7.68;5.15;;;16.50;99.90;;;;;;7302690;32;20669;-55
2023/09/18 02:12:40;;;;;;;11.10;5.28;;;16.50;99.90;;;;;;7304372;32;20104;-55
2023/09/18 02:16:43;;;;;;;10.80;5.20;;;16.50;99.90;;;;;;7303383;32;20263;-55
2023/09/18 02:20:48;;;;;;;8.23;5.43;;;16.50;99.90;;;;;;7303708;32;20396;-56
2023/09/18 02:24:50;;;;;;;9.65;5.12;;;16.50;99.90;;;;;;7312928;32;20169;-56
2023/09/18 02:28:53;;;;;;;11.88;5.32;;;16.50;99.90;;;;;;7303472;32;20768;-55
2023/09/18 02:32:55;;;;;;;14.40;5.78;;;16.50;99.90;;;;;;7307006;32;20103;-57
2023/09/18 02:36:57;;;;;;;15.25;5.87;;;16.50;99.90;;;;;;7303566;32;20349;-56
2023/09/18 02:40:59;;;;;;;17.65;5.40;;;16.50;99.90;;;;;;7302976;32;20158;-55
2023/09/18 02:45:01;;;;;;;13.05;6.20;;;16.50;99.90;;;;;;7302696;32;20479;-56
2023/09/18 02:49:03;;;;;;;10.63;5.55;;;16.50;99.90;;;;;;7302418;32;20100;-56
2023/09/18 02:53:08;;;;;;;13.25;5.25;;;16.60;99.90;;;;;;7283828;32;20145;-56
2023/09/18 02:57:10;;;;;;;9.27;5.28;;;16.80;99.90;;;;;;7307730;32;20120;-55
2023/09/18 03:01:12;;;;;;;11.75;6.22;;;17.10;99.90;;;;;;7304363;32;20479;-56
2023/09/18 03:05:14;;;;;;;10.55;6.03;;;17.30;99.90;;;;;;7301618;32;20095;-56
2023/09/18 03:09:16;;;;;;;10.85;6.10;;;17.50;99.90;;;;;;7313880;32;20154;-56
2023/09/18 03:13:18;;;;;;;11.32;6.10;;;17.70;99.90;;;;;;7316702;32;20119;-56
2023/09/18 03:17:20;;;;;;;12.35;6.18;;;17.80;99.90;;;;;;7312766;32;20104;-55
2023/09/18 03:21:22;;;;;;;10.05;6.05;;;18.00;99.90;;;;;;7315675;32;20132;-57
2023/09/18 03:25:24;;;;;;;6.43;5.15;;;18.10;99.90;;;;;;7308463;32;20103;-56
2023/09/18 03:29:26;;;;;;;8.57;5.82;;;18.10;99.90;;;;;;7318746;32;20194;-56
2023/09/18 03:33:28;;;;;;;11.20;5.40;;;18.20;99.90;;;;;;7306862;32;20660;-55
2023/09/18 03:37:30;;;;;;;12.65;5.30;;;18.30;99.90;;;;;;7304795;32;20104;-55
2023/09/18 03:41:34;;;;;;;9.60;5.60;;;18.40;99.90;;;;;;7307036;32;20229;-56
2023/09/18 03:45:36;;;;;;;7.78;5.15;;;18.50;99.90;;;;;;7299885;32;20250;-56
2023/09/18 03:49:38;;;;;;;9.40;5.28;;;18.60;99.90;;;;;;7303249;32;20123;-55
2023/09/18 03:53:40;;;;;;;11.15;5.65;;;18.60;99.90;;;;;;7307026;32;20124;-56
2023/09/18 03:57:42;;;;;;;9.40;5.20;;;18.60;99.90;;;;;;7303936;32;20624;-56
2023/09/18 04:01:45;;;;;;;12.43;5.00;;;18.60;99.90;;;;;;7306789;32;20384;-56
2023/09/18 04:05:47;;;;;;;6.78;4.55;;;18.70;99.90;;;;;;7297897;32;20129;-57
2023/09/18 04:09:49;;;;;;;9.77;4.45;;;18.70;99.90;;;;;;7311066;32;20211;-57
2023/09/18 04:13:50;;;;;;;7.25;4.65;;;18.80;99.90;;;;;;7302210;32;20099;-56
2023/09/18 04:17:52;;;;;;;9.90;4.70;;;18.80;99.90;;;;;;7305072;32;20537;-56
2023/09/18 04:21:54;;;;;;;6.55;4.30;;;19.00;99.90;;;;;;7307095;32;20183;-55
2023/09/18 04:25:58;;;;;;;7.22;5.40;;;19.00;99.90;;;;;;7304029;32;20270;-56
2023/09/18 04:30:00;;;;;;;11.40;4.03;;;19.10;99.90;;;;;;7308058;32;20100;-55
2023/09/18 04:34:02;;;;;;;10.07;4.90;;;19.00;99.90;;;;;;7307012;32;20645;-55
2023/09/18 04:38:06;;;;;;;6.50;4.25;;;19.10;99.90;;;;;;7292787;32;20096;-55
2023/09/18 04:42:08;;;;;;;13.30;4.97;;;19.20;99.90;;;;;;7304117;32;20096;-55
2023/09/18 04:46:10;;;;;;;8.25;4.37;;;19.10;99.90;;;;;;7298335;32;20100;-56
2023/09/18 04:50:12;;;;;;;10.50;4.43;;;19.20;99.90;;;;;;7296615;32;20118;-56
2023/09/18 04:54:20;;;;;;;8.30;4.35;;;19.20;99.90;;;;;;7307107;32;20107;-56
2023/09/18 04:58:22;;;;;;;9.02;4.35;;;19.30;99.90;;;;;;7302725;32;20127;-56
2023/09/18 05:02:25;;;;;;;8.85;4.53;;;19.20;99.90;;;;;;7306449;32;20123;-55
2023/09/18 05:06:27;;;;;;;11.38;4.93;;;19.10;99.90;;;;;;7289078;32;20252;-56
2023/09/18 05:10:30;;;;;;;7.75;4.50;;;19.10;99.90;;;;;;7312565;32;20108;-55
2023/09/18 05:14:33;;;;;;;8.18;3.55;;;19.10;99.90;;;;;;7302450;32;20116;-56
2023/09/18 05:18:35;;;;;;;8.95;4.45;;;19.30;99.90;;;;;;7309473;32;20129;-56
2023/09/18 05:22:36;;;;;;;11.12;4.22;;;19.30;99.90;;;;;;7306390;32;20469;-56
2023/09/18 05:26:38;;;;;;;9.23;4.32;;;19.20;99.90;;;;;;7307118;32;20104;-56
2023/09/18 05:30:40;;;;;;;7.57;4.70;;;19.20;99.90;;;;;;7308635;32;20245;-56
2023/09/18 05:34:42;;;;;;;9.52;3.95;;;19.20;99.90;;;;;;7302330;32;20493;-57
2023/09/18 05:38:44;;;;;;;8.95;4.60;;;19.10;99.90;;;;;;7301453;32;20127;-57
2023/09/18 05:42:46;;;;;;;9.90;4.47;;;19.20;99.90;;;;;;7309515;32;20100;-56
2023/09/18 05:46:48;;;;;;;6.80;4.00;;;19.10;99.90;;;;;;7309545;32;20131;-56
2023/09/18 05:50:50;;;;;;;10.68;4.25;;;19.00;99.90;;;;;;7309714;32;20244;-56
2023/09/18 05:54:52;;;;;;;14.95;4.60;;;19.10;99.90;;;;;;7306675;32;20879;-57
2023/09/18 05:58:55;;;;;;;10.75;4.65;;;19.20;99.90;;;;;;7299263;32;20104;-56
2023/09/18 06:02:56;;;;;;;9.25;3.87;;;19.10;99.90;;;;;;7280980;32;20604;-56
2023/09/18 06:06:58;;;;;;;9.38;4.50;;;19.20;99.90;;;;;;7303997;32;20178;-57
2023/09/18 06:11:00;;;;;;;11.35;3.87;;;19.20;99.90;;;;;;7299179;32;20142;-57
2023/09/18 06:15:04;;;;;;;10.85;3.97;;;19.30;99.90;;;;;;7299928;32;20573;-56
2023/09/18 06:19:05;;;;;;;10.82;4.10;;;19.30;99.90;;;;;;7306493;32;20215;-56
2023/09/18 06:23:07;;;;;;;13.00;4.75;;;19.30;99.90;;;;;;7305845;32;20103;-56
2023/09/18 06:27:10;;;;;;;7.68;3.97;;;19.30;99.90;;;;;;7308074;32;20591;-57
2023/09/18 06:31:12;;;;;;;10.43;4.07;;;19.40;99.90;;;;;;7305965;32;20883;-58
2023/09/18 06:35:14;;;;;;;10.68;3.87;;;19.40;99.90;;;;;;7305962;32;20241;-57
2023/09/18 06:39:16;;;;;;;10.57;3.60;;;19.50;99.90;;;;;;7304341;32;20214;-56
2023/09/18 06:43:18;;;;;;;6.20;3.05;;;19.50;99.90;;;;;;7301338;32;20154;-56
2023/09/18 06:47:19;;;;;;;9.50;3.30;;;19.50;99.90;;;;;;7286260;32;20123;-57
2023/09/18 06:51:23;;;;;;;7.60;3.15;;;19.60;99.90;;;;;;7303321;32;20207;-56
2023/09/18 06:55:43;;;;;;;6.50;2.90;;;19.60;99.90;;;;;;7294185;32;20120;-57
2023/09/18 06:59:45;;;;;;;11.27;3.20;;;19.70;99.90;;;;;;7299487;32;20556;-57
2023/09/18 07:03:47;;;;;;;8.18;2.92;;;19.80;99.90;;;;;;7295811;32;20400;-56
2023/09/18 07:07:49;;;;;;;6.70;2.90;;;19.80;99.90;;;;;;7297300;32;20112;-57
2023/09/18 07:11:51;;;;;;;5.30;2.28;;;19.80;99.90;;;;;;7299945;32;20598;-57
2023/09/18 07:15:53;;;;;;;6.45;2.30;;;19.90;99.90;;;;;;7296055;32;20863;-56
2023/09/18 07:19:54;;;;;;;5.57;2.12;;;20.00;99.90;;;;;;7296617;32;20569;-56
2023/09/18 07:23:56;;;;;;;7.12;2.80;;;20.00;99.90;;;;;;7297748;32;20512;-58
2023/09/18 07:27:58;;;;;;;10.57;3.00;;;20.00;99.90;;;;;;7292291;32;20249;-56
2023/09/18 07:32:01;;;;;;;10.05;2.85;;;20.10;99.90;;;;;;7298320;32;20108;-56
2023/09/18 07:36:03;;;;;;;7.55;3.08;;;20.20;99.90;;;;;;7296837;32;20776;-56
2023/09/18 07:40:08;;;;;;;12.00;2.65;;;20.30;99.90;;;;;;7296059;32;20108;-56
2023/09/18 07:44:10;;;;;;;5.90;2.60;;;20.30;99.90;;;;;;7301704;32;20759;-56
2023/09/18 07:48:12;;;;;;;5.53;2.17;;;20.30;99.90;;;;;;7299719;32;20148;-57
2023/09/18 07:52:14;;;;;;;4.65;2.25;;;20.30;99.90;;;;;;7302813;32;20470;-56
2023/09/18 07:56:17;;;;;;;5.53;2.00;;;20.40;99.90;;;;;;7292900;32;20179;-56
2023/09/18 08:00:19;;;;;;;10.88;2.08;;;20.30;99.90;;;;;;7294607;32;20142;-56
2023/09/18 08:04:21;;;;;;;6.68;1.60;;;20.40;99.90;;;;;;7301417;32;20230;-55
2023/09/18 08:08:24;;;;;;;5.93;1.80;;;20.30;99.90;;;;;;7294503;32;20108;-57
2023/09/18 08:12:26;;;;;;;5.82;1.50;;;20.30;99.90;;;;;;7297537;32;20108;-56
2023/09/18 08:16:29;;;;;;;6.60;1.80;;;20.40;99.90;;;;;;7291989;32;20249;-56
2023/09/18 08:20:32;;;;;;;4.82;1.50;;;20.50;99.90;;;;;;7300415;32;20247;-55
2023/09/18 08:24:34;;;;;;;3.83;1.30;;;20.50;99.90;;;;;;7295232;32;20131;-56
2023/09/18 08:28:43;;;;;;;4.22;1.10;;;20.40;99.90;;;;;;7293826;32;20194;-56
2023/09/18 08:32:45;;;;;;;2.75;1.30;;;20.40;99.90;;;;;;7286996;32;20099;-57
2023/09/18 08:36:47;;;;;;;5.03;1.00;;;20.50;99.90;;;;;;7282999;32;20108;-55
2023/09/18 08:40:49;;;;;;;4.43;1.00;;;20.60;99.90;;;;;;7297079;32;20512;-57
2023/09/18 08:44:53;;;;;;;4.95;1.20;;;20.60;99.90;;;;;;7296960;32;20550;-56
2023/09/18 08:48:55;;;;;;;3.87;1.20;;;20.70;99.90;;;;;;7292883;32;20120;-56
2023/09/18 08:52:57;;;;;;;5.25;1.10;;;20.70;99.90;;;;;;7295985;32;20437;-57
2023/09/18 08:57:00;;;;;;;4.25;1.20;;;20.80;99.90;;;;;;7292144;32;20206;-56
2023/09/18 09:01:03;;;;;;;2.65;1.05;;;20.90;99.90;;;;;;7292042;32;20210;-57
2023/09/18 09:05:06;;;;;;;3.00;0.95;;;21.00;99.90;;;;;;7294693;32;20116;-57
2023/09/18 09:09:08;;;;;;;2.67;0.70;;;21.10;99.90;;;;;;7295859;32;20207;-56
2023/09/18 09:13:10;;;;;;;4.30;1.20;;;21.20;99.90;;;;;;7293594;32;20122;-57
2023/09/18 09:17:18;;;;;;;2.70;0.98;;;21.30;99.90;;;;;;7282195;32;20108;-60
2023/09/18 09:21:20;;;;;;;2.17;0.75;;;21.50;99.90;;;;;;7305463;32;20497;-57
2023/09/18 09:25:25;;;;;;;2.75;1.00;;;21.60;99.90;;;;;;7297602;32;20272;-58
2023/09/18 09:29:28;;;;;;;3.25;1.10;;;21.60;99.90;;;;;;7294626;32;20568;-57
2023/09/18 09:33:30;;;;;;;2.20;0.90;;;21.80;99.90;;;;;;7295183;32;20116;-57
2023/09/18 09:37:32;;;;;;;4.57;1.15;;;21.70;99.90;;;;;;7298603;32;20158;-57
2023/09/18 09:41:35;;;;;;;3.12;0.90;;;21.70;99.90;;;;;;7302292;32;20149;-57
2023/09/18 09:45:38;;;;;;;3.67;1.00;;;21.70;99.90;;;;;;7308725;32;20112;-57
2023/09/18 09:49:47;;;;;;;2.78;1.17;;;21.60;99.90;;;;;;7293730;32;20247;-57
2023/09/18 09:53:51;;;;;;;1.85;1.05;;;21.60;99.90;;;;;;7298686;32;20142;-57
2023/09/18 09:58:01;;;;;;;4.32;1.20;;;21.80;99.90;;;;;;7304620;32;20140;-58
2023/09/18 10:02:03;;;;;;;3.72;1.23;;;22.20;99.90;;;;;;7301908;32;20233;-57
2023/09/18 10:06:06;;;;;;;3.83;1.10;;;23.10;99.90;;;;;;7300120;32;20130;-57
2023/09/18 10:10:09;;;;;;;2.37;0.93;;;23.20;99.90;;;;;;7306925;32;20243;-57
2023/09/18 10:14:20;;;;;;;2.30;0.93;;;23.90;99.90;;;;;;7302599;32;20108;-57
2023/09/18 10:18:22;;;;;;;5.20;1.10;;;24.40;99.90;;;;;;7297157;32;20168;-57
2023/09/18 10:22:37;;;;;;;2.95;1.12;;;24.20;99.90;;;;;;7301664;32;20322;-57
2023/09/18 10:26:48;;;;;;;3.42;1.15;;;24.40;99.90;;;;;;7296599;32;20257;-57
2023/09/18 10:30:51;;;;;;;2.85;0.90;;;24.60;99.90;;;;;;7300973;32;20108;-59
2023/09/18 10:34:53;;;;;;;1.70;0.90;;;25.40;99.90;;;;;;7297547;32;20226;-58
2023/09/18 10:38:58;;;;;;;5.30;0.90;;;25.90;99.90;;;;;;7301795;32;20550;-57
2023/09/18 10:43:04;;;;;;;4.60;1.10;;;26.00;99.90;;;;;;7295363;32;20115;-57
2023/09/18 10:47:08;;;;;;;2.37;0.75;;;25.70;99.90;;;;;;7299384;32;20229;-58
2023/09/18 10:51:11;;;;;;;6.00;1.10;;;25.90;99.90;;;;;;7300191;32;20175;-57
2023/09/18 10:55:13;;;;;;;2.45;0.93;;;25.90;99.90;;;;;;7303047;32;20119;-57
2023/09/18 10:59:17;;;;;;;3.42;0.90;;;25.60;99.90;;;;;;7301218;32;20134;-57
2023/09/18 11:03:22;;;;;;;3.55;1.00;;;26.00;99.90;;;;;;7298309;32;20160;-57
2023/09/18 11:07:25;;;;;;;4.30;1.00;;;25.80;99.90;;;;;;7299893;32;20145;-57
2023/09/18 11:11:29;;;;;;;3.72;1.12;;;26.20;99.90;;;;;;7298767;32;20529;-56
2023/09/18 11:15:32;;;;;;;2.03;0.90;;;26.60;99.90;;;;;;7295592;32;20112;-57
2023/09/18 11:19:40;;;;;;;2.58;1.17;;;26.30;99.90;;;;;;7301298;32;20756;-57
2023/09/18 11:23:45;;;;;;;2.37;1.20;;;26.20;99.90;;;;;;7295717;32;20147;-57
2023/09/18 11:27:55;;;;;;;2.10;0.95;;;25.10;99.90;;;;;;7302244;32;20195;-57
2023/09/18 11:31:57;;;;;;;5.78;1.30;;;24.40;99.90;;;;;;7298415;32;20274;-57
2023/09/18 11:36:12;;;;;;;4.28;1.35;;;24.60;99.90;;;;;;7299179;32;20197;-57
2023/09/18 11:40:33;;;;;;;4.45;0.90;;;24.50;99.90;;;;;;7298790;32;20271;-57
2023/09/18 11:44:40;;;;;;;5.10;1.25;;;24.10;99.90;;;;;;7298040;32;20108;-57
2023/09/18 11:48:42;;;;;;;2.30;1.02;;;24.10;99.90;;;;;;7297493;32;20144;-57
2023/09/18 11:52:46;;;;;;;4.45;1.17;;;24.00;99.90;;;;;;7298690;32;20139;-56
2023/09/18 11:56:47;;;;;;;3.20;1.20;;;23.60;99.90;;;;;;7297786;32;20588;-56
2023/09/18 12:00:50;;;;;;;5.05;1.42;;;23.40;99.90;;;;;;7298825;32;20260;-57
2023/09/18 12:04:53;;;;;;;4.15;1.27;;;23.60;99.90;;;;;;7296789;32;20135;-57
2023/09/18 12:08:56;;;;;;;3.00;1.30;;;24.00;99.90;;;;;;7294794;32;20496;-57
2023/09/18 12:12:58;;;;;;;6.05;1.20;;;24.30;99.90;;;;;;7299839;32;20798;-57
2023/09/18 12:17:03;;;;;;;2.25;0.95;;;24.30;99.90;;;;;;7293117;32;20337;-57
2023/09/18 12:21:07;;;;;;;6.15;1.55;;;24.30;99.90;;;;;;7293830;32;20155;-57
2023/09/18 12:25:20;;;;;;;3.60;1.30;;;24.20;99.90;;;;;;7294852;32;20187;-58
2023/09/18 12:29:22;;;;;;;3.80;1.25;;;24.10;99.90;;;;;;7298114;32;20263;-57
2023/09/18 12:33:25;;;;;;;2.17;1.30;;;24.00;99.90;;;;;;7293262;32;20111;-57
2023/09/18 12:37:27;;;;;;;4.95;1.33;;;24.00;99.90;;;;;;7290483;32;20147;-57
2023/09/18 12:41:30;;;;;;;4.40;1.10;;;24.30;99.90;;;;;;7293995;32;20186;-58
2023/09/18 12:45:34;;;;;;;6.32;1.10;;;24.30;99.90;;;;;;7295375;32;20265;-57
2023/09/18 12:49:37;;;;;;;5.22;1.58;;;24.20;99.90;;;;;;7292309;32;20201;-57
2023/09/18 12:53:39;;;;;;;3.53;1.35;;;24.30;99.90;;;;;;7295297;32;20256;-58
2023/09/18 12:57:41;;;;;;;2.70;1.10;;;24.40;99.90;;;;;;7291935;32;20142;-58
2023/09/18 13:01:47;;;;;;;3.72;1.30;;;24.50;99.90;;;;;;7289043;32;20136;-58
2023/09/18 13:05:54;;;;;;;1.75;1.20;;;24.40;99.90;;;;;;7294059;32;20334;-58
2023/09/18 13:10:00;;;;;;;2.47;1.20;;;24.40;99.90;;;;;;7294109;32;20230;-60
2023/09/18 13:14:02;;;;;;;2.12;1.10;;;24.60;99.90;;;;;;7295915;32;20529;-58
2023/09/18 13:18:14;;;;;;;4.05;0.98;;;24.60;99.90;;;;;;7302502;32;20187;-58
2023/09/18 13:22:24;;;;;;;2.75;1.10;;;24.40;99.90;;;;;;7295580;32;20279;-57
2023/09/18 13:26:26;;;;;;;2.78;1.10;;;24.50;99.90;;;;;;7302356;32;20126;-59
2023/09/18 13:30:28;;;;;;;3.72;1.20;;;24.60;99.90;;;;;;7293611;32;20119;-57
2023/09/18 13:34:31;;;;;;;2.70;1.00;;;24.70;99.90;;;;;;7302512;32;20211;-59
2023/09/18 13:38:32;;;;;;;1.92;1.10;;;24.80;99.90;;;;;;7299632;32;20123;-60
2023/09/18 13:42:40;;;;;;;3.53;1.10;;;24.70;99.90;;;;;;7301769;32;20108;-58
2023/09/18 13:46:42;;;;;;;1.37;0.90;;;24.60;99.90;;;;;;7298478;32;20522;-58
2023/09/18 13:50:45;;;;;;;3.85;1.37;;;24.40;99.90;;;;;;7291644;32;20120;-57
2023/09/18 13:54:51;;;;;;;5.18;1.48;;;24.30;99.90;;;;;;7294919;32;20379;-57
2023/09/18 13:58:54;;;;;;;3.70;1.08;;;24.50;99.90;;;;;;7301213;32;20127;-58
2023/09/18 14:02:56;;;;;;;3.53;1.20;;;24.60;99.90;;;;;;7299536;32;20164;-57
2023/09/18 14:06:58;;;;;;;3.40;1.58;;;24.60;99.90;;;;;;7289938;32;20182;-56
2023/09/18 14:11:00;;;;;;;5.87;1.37;;;24.50;99.90;;;;;;7301664;32;20112;-56
2023/09/18 14:15:06;;;;;;;2.12;1.00;;;24.50;99.90;;;;;;7295337;32;20123;-56
2023/09/18 14:19:11;;;;;;;2.17;0.80;;;24.50;99.90;;;;;;7298377;32;20766;-56
2023/09/18 14:23:12;;;;;;;4.70;0.90;;;24.40;99.90;;;;;;7300892;32;20210;-56
2023/09/18 14:27:14;;;;;;;3.17;1.05;;;24.50;99.90;;;;;;7298163;32;20238;-56
2023/09/18 14:31:16;;;;;;;1.95;1.00;;;24.70;99.90;;;;;;7303820;32;20226;-56
2023/09/18 14:35:18;;;;;;;3.45;1.12;;;24.70;99.90;;;;;;7301385;32;20136;-55
2023/09/18 14:39:20;;;;;;;2.12;1.00;;;24.60;99.90;;;;;;7313653;32;20940;-56
2023/09/18 14:43:22;;;;;;;6.93;1.37;;;24.50;99.90;;;;;;7289306;32;20865;-56
2023/09/18 14:47:24;;;;;;;3.35;1.20;;;24.40;99.90;;;;;;7278150;32;20478;-56
2023/09/18 14:51:27;;;;;;;3.17;1.17;;;24.20;99.90;;;;;;7291677;32;20165;-56
2023/09/18 14:55:30;;;;;;;3.20;1.30;;;24.20;99.90;;;;;;7293649;32;20262;-55
2023/09/18 14:59:32;;;;;;;2.30;1.00;;;24.20;99.90;;;;;;7286078;32;20112;-56
2023/09/18 15:03:44;;;;;;;3.83;1.20;;;23.90;99.90;;;;;;7293444;32;20580;-55
2023/09/18 15:07:46;;;;;;;4.65;1.08;;;24.00;99.90;;;;;;7272012;32;20859;-55
2023/09/18 15:11:48;;;;;;;1.85;1.20;;;24.00;99.90;;;;;;7301201;32;20214;-55
2023/09/18 15:15:50;;;;;;;2.42;0.98;;;24.00;99.90;;;;;;7296342;32;20222;-55
2023/09/18 15:19:55;;;;;;;4.20;1.20;;;24.00;99.90;;;;;;7296394;32;20753;-56
2023/09/18 15:23:57;;;;;;;1.95;0.90;;;23.90;99.90;;;;;;7295269;32;20296;-55
2023/09/18 15:27:59;;;;;;;2.37;0.90;;;23.90;99.90;;;;;;7298799;32;20112;-55
2023/09/18 15:32:02;;;;;;;4.15;1.10;;;23.80;99.90;;;;;;7293547;32;20128;-55
2023/09/18 15:36:07;;;;;;;2.30;1.00;;;23.80;99.90;;;;;;7293800;32;20743;-55
2023/09/18 15:40:10;;;;;;;2.62;1.12;;;23.80;99.90;;;;;;7297199;32;20198;-56
2023/09/18 15:44:13;;;;;;;2.37;1.10;;;23.60;99.90;;;;;;7282626;32;20116;-55
2023/09/18 15:48:17;;;;;;;7.65;1.48;;;23.60;99.90;;;;;;7298523;32;20107;-56
2023/09/18 15:52:20;;;;;;;2.20;1.00;;;23.70;99.90;;;;;;7296758;32;20453;-56
2023/09/18 15:56:21;;;;;;;7.30;1.30;;;23.70;99.90;;;;;;7290755;32;20197;-56
2023/09/18 16:00:23;;;;;;;2.25;0.93;;;23.70;99.90;;;;;;7295838;32;20195;-56
2023/09/18 16:04:25;;;;;;;3.47;1.10;;;23.60;99.90;;;;;;7283669;32;20208;-55
2023/09/18 16:08:28;;;;;;;2.58;1.00;;;23.50;99.90;;;;;;7286072;32;20780;-55
2023/09/18 16:12:33;;;;;;;2.53;0.90;;;23.50;99.90;;;;;;7294068;32;20206;-56
2023/09/18 16:16:35;;;;;;;3.70;1.17;;;23.40;99.90;;;;;;7289325;32;20584;-55
2023/09/18 16:20:37;;;;;;;3.17;1.10;;;23.40;99.90;;;;;;7298421;32;20197;-56
2023/09/18 16:24:39;;;;;;;2.90;1.00;;;23.40;99.90;;;;;;7297853;32;20177;-55
2023/09/18 16:28:41;;;;;;;4.10;1.20;;;23.40;99.90;;;;;;7294958;32;20115;-56
2023/09/18 16:32:43;;;;;;;2.53;0.95;;;23.40;99.90;;;;;;7296036;32;20885;-56
2023/09/18 16:36:45;;;;;;;5.70;1.12;;;23.20;99.90;;;;;;7295360;32;20222;-56
2023/09/18 16:40:47;;;;;;;4.75;1.33;;;23.10;99.90;;;;;;7296998;32;20199;-55
2023/09/18 16:44:49;;;;;;;5.68;1.35;;;23.00;99.90;;;;;;7296938;32;20111;-56
2023/09/18 16:48:51;;;;;;;3.33;1.10;;;22.90;99.90;;;;;;7297861;32;20270;-55
2023/09/18 16:52:56;;;;;;;4.47;1.10;;;22.80;99.90;;;;;;7301846;32;20524;-55
2023/09/18 16:56:58;;;;;;;2.65;1.30;;;22.70;99.90;;;;;;7302774;32;20108;-55
2023/09/18 17:01:00;;;;;;;2.20;1.60;;;22.60;99.90;;;;;;7301579;32;20221;-54
2023/09/18 17:05:04;;;;;;;2.62;0.93;;;22.50;99.90;;;;;;7303836;32;20814;-55
2023/09/18 17:09:06;;;;;;;5.25;1.33;;;22.40;99.90;;;;;;7303346;32;20149;-55
2023/09/18 17:13:09;;;;;;;3.62;1.30;;;22.40;99.90;;;;;;7296980;32;20122;-55
2023/09/18 17:17:11;;;;;;;1.77;1.27;;;22.40;99.90;;;;;;7309481;32;20938;-56
2023/09/18 17:21:13;;;;;;;3.15;1.20;;;22.30;99.90;;;;;;7302156;32;20259;-56
2023/09/18 17:25:15;;;;;;;4.57;1.27;;;22.20;99.90;;;;;;7312948;32;20171;-56
2023/09/18 17:29:17;;;;;;;4.12;1.23;;;22.20;99.90;;;;;;7291832;32;20290;-56
2023/09/18 17:33:18;;;;;;;2.35;1.05;;;22.10;99.90;;;;;;7296066;32;20104;-56
2023/09/18 17:37:20;;;;;;;5.15;1.08;;;22.00;99.90;;;;;;7296701;32;20201;-56
2023/09/18 17:41:22;;;;;;;4.78;1.30;;;22.10;99.90;;;;;;7279888;32;20258;-57
2023/09/18 17:45:24;;;;;;;12.50;1.52;;;22.00;99.90;;;;;;7296517;32;20284;-56
2023/09/18 17:49:26;;;;;;;3.53;1.08;;;21.90;99.90;;;;;;7298883;32;20111;-55
2023/09/18 17:53:28;;;;;;;6.07;1.02;;;21.30;99.90;;;;;;7299181;32;20528;-54
2023/09/18 17:57:30;;;;;;;5.68;0.98;;;20.20;99.90;;;;;;7300585;32;20655;-55
2023/09/18 18:01:34;;;;;;;4.85;1.60;;;18.10;99.90;;;;;;7310184;32;20116;-55
2023/09/18 18:05:36;;;;;;;6.75;1.85;;;17.20;99.90;;;;;;7304940;32;20134;-55
2023/09/18 18:09:38;;;;;;;5.22;2.12;;;16.80;99.90;;;;;;7292566;32;20137;-55
2023/09/18 18:13:40;;;;;;;5.03;2.30;;;16.60;99.90;;;;;;7297900;32;20929;-56
2023/09/18 18:17:42;;;;;;;6.62;2.70;;;16.50;99.90;;;;;;7296678;32;20107;-54
2023/09/18 18:21:44;;;;;;;4.35;2.08;;;16.60;99.90;;;;;;7286688;32;20134;-55
2023/09/18 18:25:46;;;;;;;5.22;1.70;;;16.50;99.90;;;;;;7280377;32;20721;-55
2023/09/18 18:29:48;;;;;;;5.25;2.22;;;16.40;99.90;;;;;;7301071;32;20112;-56
2023/09/18 18:33:59;;;;;;;8.50;2.78;;;16.40;99.90;;;;;;7295505;32;20168;-55
2023/09/18 18:38:02;;;;;;;4.22;2.08;;;16.30;99.90;;;;;;7295752;32;20195;-54
2023/09/18 18:42:04;;;;;;;4.15;2.00;;;16.20;99.90;;;;;;7296517;32;20461;-55
2023/09/18 18:46:09;;;;;;;3.05;2.10;;;16.20;99.90;;;;;;7286078;32;20816;-56
2023/09/18 18:50:12;;;;;;;3.45;1.77;;;16.20;99.90;;;;;;7288577;32;20247;-55
2023/09/18 18:54:13;;;;;;;4.50;1.98;;;16.10;99.90;;;;;;7305852;32;20190;-55
2023/09/18 18:58:15;;;;;;;3.92;1.77;;;16.00;99.90;;;;;;7300506;32;20112;-54
2023/09/18 19:02:17;;;;;;;3.92;1.80;;;16.00;99.90;;;;;;7299566;32;20226;-54
2023/09/18 19:06:19;;;;;;;4.80;1.83;;;16.00;99.90;;;;;;7279027;32;20655;-55
2023/09/18 19:10:21;;;;;;;4.47;1.80;;;16.00;99.90;;;;;;7301712;32;20235;-55
2023/09/18 19:14:22;;;;;;;5.12;2.00;;;15.90;99.90;;;;;;7287170;32;20206;-56
2023/09/18 19:18:26;;;;;;;5.45;1.90;;;15.90;99.90;;;;;;7294488;32;20115;-55
2023/09/18 19:22:27;;;;;;;4.30;2.25;;;15.90;99.90;;;;;;7287926;32;20173;-55
2023/09/18 19:26:29;;;;;;;4.95;1.73;;;15.90;99.90;;;;;;7300777;32;20222;-55
2023/09/18 19:30:31;;;;;;;4.80;2.65;;;15.90;99.90;;;;;;7298998;32;20964;-53
2023/09/18 19:34:34;;;;;;;7.62;2.42;;;15.90;99.90;;;;;;7294031;32;20465;-53
2023/09/18 19:38:36;;;;;;;5.07;2.00;;;15.80;99.90;;;;;;7301999;32;20131;-54
2023/09/18 19:42:38;;;;;;;3.97;1.50;;;15.80;99.90;;;;;;7300087;32;20119;-54
2023/09/18 19:46:41;;;;;;;4.20;2.40;;;15.80;99.90;;;;;;7282773;32;20206;-54
2023/09/18 19:50:42;;;;;;;5.45;2.40;;;15.80;99.90;;;;;;7288408;32;20286;-55
2023/09/18 19:54:45;;;;;;;5.72;2.20;;;15.90;99.90;;;;;;7255881;32;20124;-54
2023/09/18 19:58:48;;;;;;;6.57;2.55;;;15.80;99.90;;;;;;7304956;32;20257;-55
2023/09/18 20:02:51;;;;;;;4.72;2.33;;;15.80;99.90;;;;;;7290735;32;20108;-54
2023/09/18 20:06:53;;;;;;;4.68;2.50;;;15.90;99.90;;;;;;7294255;32;20119;-54
2023/09/18 20:10:59;;;;;;;3.00;2.25;;;15.90;99.90;;;;;;7290900;32;20136;-54
2023/09/18 20:15:00;;;;;;;8.70;3.00;;;15.90;99.90;;;;;;7295293;32;20107;-53
2023/09/18 20:19:03;;;;;;;8.27;2.72;;;15.90;99.90;;;;;;7299501;32;20270;-55
2023/09/18 20:23:04;;;;;;;6.45;2.25;;;15.90;99.90;;;;;;7300901;32;20108;-54
2023/09/18 20:27:08;;;;;;;8.52;2.95;;;15.90;99.90;;;;;;7293987;32;20594;-53
2023/09/18 20:31:10;;;;;;;9.00;2.60;;;15.90;99.90;;;;;;7277471;32;20130;-54
2023/09/18 20:35:14;;;;;;;8.43;2.58;;;15.90;99.90;;;;;;7302181;32;20254;-54
2023/09/18 20:39:16;;;;;;;7.22;2.22;;;15.90;99.90;;;;;;7298325;32;20198;-54
2023/09/18 20:43:24;;;;;;;4.28;2.10;;;15.80;99.90;;;;;;7297074;32;20722;-54
2023/09/18 20:47:27;;;;;;;6.00;2.62;;;15.70;99.90;;;;;;7294476;32;20186;-55
2023/09/18 20:51:30;;;;;;;5.60;2.35;;;15.70;99.90;;;;;;7304150;32;20163;-55
2023/09/18 20:55:33;;;;;;;4.05;2.47;;;15.70;99.90;;;;;;7300264;32;20161;-55
2023/09/18 20:59:35;;;;;;;5.85;2.62;;;15.70;99.90;;;;;;7293870;32;20108;-55
2023/09/18 21:03:47;;;;;;;6.35;2.65;;;15.80;99.90;;;;;;7289594;32;20112;-54